Airport ID:KN38
Update Time (UTC):23/09/2020 17:29
Wind Speed (Knots):9
Wind Direction (Magnetic):300
Temperature (°C):24
Dew Point (°C):6
Humidity (%):33
Altimeter (inHg):29.97
Density Altitude (Feet):3400
Visibility:10+
Clouds (Hundreds of feet):CLR
Present Weather:
METAR:METAR KN38 231725Z AUTO 28009KT 10SM CLR 24/07 A2997 RMK AO2

The data displayed is for advisory purposes only and is not to be used for flight planning or operations.